sensor_id;sensor_type;location;lat;lon;timestamp;P1;durP1;ratioP1;P2;durP2;ratioP2
32138;SDS011;18644;48.700;9.210;2022-07-23T00:02:21;3.83;;;2.72;;
32138;SDS011;18644;48.700;9.210;2022-07-23T00:04:48;3.13;;;2.83;;
32138;SDS011;18644;48.700;9.210;2022-07-23T00:07:15;4.35;;;3.10;;
32138;SDS011;18644;48.700;9.210;2022-07-23T00:09:42;4.40;;;2.63;;
32138;SDS011;18644;48.700;9.210;2022-07-23T00:12:09;6.45;;;2.78;;
32138;SDS011;18644;48.700;9.210;2022-07-23T00:14:36;3.53;;;2.67;;
32138;SDS011;18644;48.700;9.210;2022-07-23T00:17:03;2.60;;;2.15;;
32138;SDS011;18644;48.700;9.210;2022-07-23T00:19:31;3.00;;;2.20;;
32138;SDS011;18644;48.700;9.210;2022-07-23T00:21:58;2.50;;;2.13;;
32138;SDS011;18644;48.700;9.210;2022-07-23T00:24:25;2.72;;;2.15;;
32138;SDS011;18644;48.700;9.210;2022-07-23T00:26:52;2.10;;;1.90;;
32138;SDS011;18644;48.700;9.210;2022-07-23T00:29:19;2.40;;;2.20;;
32138;SDS011;18644;48.700;9.210;2022-07-23T00:31:46;2.30;;;2.00;;
32138;SDS011;18644;48.700;9.210;2022-07-23T00:34:13;1.98;;;1.80;;
32138;SDS011;18644;48.700;9.210;2022-07-23T00:36:41;7.43;;;2.35;;
32138;SDS011;18644;48.700;9.210;2022-07-23T00:39:08;2.58;;;1.75;;
32138;SDS011;18644;48.700;9.210;2022-07-23T00:41:35;1.98;;;1.73;;
32138;SDS011;18644;48.700;9.210;2022-07-23T00:44:15;2.10;;;1.90;;
32138;SDS011;18644;48.700;9.210;2022-07-23T00:46:47;2.15;;;1.95;;
32138;SDS011;18644;48.700;9.210;2022-07-23T00:49:17;2.72;;;2.00;;
32138;SDS011;18644;48.700;9.210;2022-07-23T00:51:46;1.80;;;1.65;;
32138;SDS011;18644;48.700;9.210;2022-07-23T00:54:15;2.28;;;1.98;;
32138;SDS011;18644;48.700;9.210;2022-07-23T00:56:43;6.68;;;2.00;;
32138;SDS011;18644;48.700;9.210;2022-07-23T00:59:11;1.67;;;1.58;;
32138;SDS011;18644;48.700;9.210;2022-07-23T01:01:39;1.77;;;1.67;;
32138;SDS011;18644;48.700;9.210;2022-07-23T01:04:07;2.10;;;1.73;;
32138;SDS011;18644;48.700;9.210;2022-07-23T01:06:34;2.55;;;1.85;;
32138;SDS011;18644;48.700;9.210;2022-07-23T01:09:05;2.20;;;1.90;;
32138;SDS011;18644;48.700;9.210;2022-07-23T01:11:33;3.40;;;2.53;;
32138;SDS011;18644;48.700;9.210;2022-07-23T01:14:07;1.98;;;1.60;;
32138;SDS011;18644;48.700;9.210;2022-07-23T01:16:38;2.45;;;1.73;;
32138;SDS011;18644;48.700;9.210;2022-07-23T01:19:06;2.10;;;1.70;;
32138;SDS011;18644;48.700;9.210;2022-07-23T01:21:37;3.60;;;1.95;;
32138;SDS011;18644;48.700;9.210;2022-07-23T01:24:08;2.88;;;1.95;;
32138;SDS011;18644;48.700;9.210;2022-07-23T01:26:36;2.75;;;2.13;;
32138;SDS011;18644;48.700;9.210;2022-07-23T01:29:04;1.60;;;1.50;;
32138;SDS011;18644;48.700;9.210;2022-07-23T01:31:31;1.95;;;1.67;;
32138;SDS011;18644;48.700;9.210;2022-07-23T01:33:58;2.10;;;1.95;;
32138;SDS011;18644;48.700;9.210;2022-07-23T01:36:25;2.10;;;1.90;;
32138;SDS011;18644;48.700;9.210;2022-07-23T01:38:52;2.95;;;2.08;;
32138;SDS011;18644;48.700;9.210;2022-07-23T01:41:21;2.13;;;1.92;;
32138;SDS011;18644;48.700;9.210;2022-07-23T01:43:48;1.73;;;1.63;;
32138;SDS011;18644;48.700;9.210;2022-07-23T01:46:14;2.35;;;2.05;;
32138;SDS011;18644;48.700;9.210;2022-07-23T01:48:41;2.30;;;2.00;;
32138;SDS011;18644;48.700;9.210;2022-07-23T01:51:09;2.03;;;1.60;;
32138;SDS011;18644;48.700;9.210;2022-07-23T01:53:36;2.72;;;2.17;;
32138;SDS011;18644;48.700;9.210;2022-07-23T01:56:03;2.70;;;2.20;;
32138;SDS011;18644;48.700;9.210;2022-07-23T01:58:31;2.58;;;2.08;;
32138;SDS011;18644;48.700;9.210;2022-07-23T02:00:59;1.60;;;1.50;;
32138;SDS011;18644;48.700;9.210;2022-07-23T02:03:26;1.85;;;1.75;;
32138;SDS011;18644;48.700;9.210;2022-07-23T02:05:53;2.95;;;2.33;;
32138;SDS011;18644;48.700;9.210;2022-07-23T02:08:20;2.10;;;1.90;;
32138;SDS011;18644;48.700;9.210;2022-07-23T02:10:47;2.58;;;2.17;;
32138;SDS011;18644;48.700;9.210;2022-07-23T02:13:16;2.20;;;1.90;;
32138;SDS011;18644;48.700;9.210;2022-07-23T02:15:44;2.03;;;1.83;;
32138;SDS011;18644;48.700;9.210;2022-07-23T02:18:11;2.63;;;2.03;;
32138;SDS011;18644;48.700;9.210;2022-07-23T02:20:38;2.22;;;2.03;;
32138;SDS011;18644;48.700;9.210;2022-07-23T02:23:05;2.45;;;2.20;;
32138;SDS011;18644;48.700;9.210;2022-07-23T02:25:32;2.20;;;2.00;;
32138;SDS011;18644;48.700;9.210;2022-07-23T02:28:00;2.97;;;2.10;;
32138;SDS011;18644;48.700;9.210;2022-07-23T02:30:27;2.03;;;1.92;;
32138;SDS011;18644;48.700;9.210;2022-07-23T02:32:55;2.28;;;2.08;;
32138;SDS011;18644;48.700;9.210;2022-07-23T02:35:22;2.03;;;1.92;;
32138;SDS011;18644;48.700;9.210;2022-07-23T02:37:49;2.10;;;1.90;;
32138;SDS011;18644;48.700;9.210;2022-07-23T02:40:16;4.40;;;2.05;;
32138;SDS011;18644;48.700;9.210;2022-07-23T02:42:43;2.53;;;2.30;;
32138;SDS011;18644;48.700;9.210;2022-07-23T02:45:11;2.20;;;1.98;;
32138;SDS011;18644;48.700;9.210;2022-07-23T02:47:37;2.80;;;2.30;;
32138;SDS011;18644;48.700;9.210;2022-07-23T02:50:06;2.45;;;2.25;;
32138;SDS011;18644;48.700;9.210;2022-07-23T02:52:34;2.28;;;2.08;;
32138;SDS011;18644;48.700;9.210;2022-07-23T02:55:01;2.40;;;2.20;;
32138;SDS011;18644;48.700;9.210;2022-07-23T02:57:28;2.60;;;2.15;;
32138;SDS011;18644;48.700;9.210;2022-07-23T02:59:55;4.75;;;2.22;;
32138;SDS011;18644;48.700;9.210;2022-07-23T03:02:22;2.45;;;2.13;;
32138;SDS011;18644;48.700;9.210;2022-07-23T03:04:49;3.22;;;2.33;;
32138;SDS011;18644;48.700;9.210;2022-07-23T03:07:18;2.53;;;2.08;;
32138;SDS011;18644;48.700;9.210;2022-07-23T03:09:45;1.98;;;1.77;;
32138;SDS011;18644;48.700;9.210;2022-07-23T03:12:11;2.15;;;1.95;;
32138;SDS011;18644;48.700;9.210;2022-07-23T03:14:38;2.40;;;2.20;;
32138;SDS011;18644;48.700;9.210;2022-07-23T03:17:06;2.75;;;2.17;;
32138;SDS011;18644;48.700;9.210;2022-07-23T03:19:32;2.10;;;1.90;;
32138;SDS011;18644;48.700;9.210;2022-07-23T03:21:59;3.38;;;2.22;;
32138;SDS011;18644;48.700;9.210;2022-07-23T03:24:28;2.55;;;2.35;;
32138;SDS011;18644;48.700;9.210;2022-07-23T03:27:09;3.10;;;2.20;;
32138;SDS011;18644;48.700;9.210;2022-07-23T03:29:36;1.90;;;1.75;;
32138;SDS011;18644;48.700;9.210;2022-07-23T03:32:03;3.15;;;1.88;;
32138;SDS011;18644;48.700;9.210;2022-07-23T03:34:30;2.30;;;2.08;;
32138;SDS011;18644;48.700;9.210;2022-07-23T03:36:57;2.45;;;2.25;;
32138;SDS011;18644;48.700;9.210;2022-07-23T03:39:24;3.97;;;2.60;;
32138;SDS011;18644;48.700;9.210;2022-07-23T03:41:52;3.40;;;2.40;;
32138;SDS011;18644;48.700;9.210;2022-07-23T03:44:19;1.90;;;1.77;;
32138;SDS011;18644;48.700;9.210;2022-07-23T03:46:46;3.10;;;2.20;;
32138;SDS011;18644;48.700;9.210;2022-07-23T03:49:13;2.33;;;2.13;;
32138;SDS011;18644;48.700;9.210;2022-07-23T03:51:39;2.50;;;2.30;;
32138;SDS011;18644;48.700;9.210;2022-07-23T03:54:06;2.42;;;2.15;;
32138;SDS011;18644;48.700;9.210;2022-07-23T03:56:33;2.75;;;2.47;;
32138;SDS011;18644;48.700;9.210;2022-07-23T03:59:02;3.08;;;2.35;;
32138;SDS011;18644;48.700;9.210;2022-07-23T04:01:29;2.78;;;2.28;;
32138;SDS011;18644;48.700;9.210;2022-07-23T04:03:56;2.70;;;2.20;;
32138;SDS011;18644;48.700;9.210;2022-07-23T04:06:23;2.38;;;2.17;;
32138;SDS011;18644;48.700;9.210;2022-07-23T04:08:50;2.33;;;2.05;;
32138;SDS011;18644;48.700;9.210;2022-07-23T04:11:17;2.88;;;2.63;;
32138;SDS011;18644;48.700;9.210;2022-07-23T04:13:44;1.98;;;1.88;;
32138;SDS011;18644;48.700;9.210;2022-07-23T04:16:12;2.67;;;2.38;;
32138;SDS011;18644;48.700;9.210;2022-07-23T04:18:39;2.42;;;2.08;;
32138;SDS011;18644;48.700;9.210;2022-07-23T04:21:05;2.33;;;2.05;;
32138;SDS011;18644;48.700;9.210;2022-07-23T04:23:32;3.42;;;2.53;;
32138;SDS011;18644;48.700;9.210;2022-07-23T04:25:59;2.58;;;2.20;;
32138;SDS011;18644;48.700;9.210;2022-07-23T04:28:26;2.55;;;2.13;;
32138;SDS011;18644;48.700;9.210;2022-07-23T04:30:55;3.80;;;2.70;;
32138;SDS011;18644;48.700;9.210;2022-07-23T04:33:24;3.47;;;2.65;;
32138;SDS011;18644;48.700;9.210;2022-07-23T04:35:51;2.70;;;2.50;;
32138;SDS011;18644;48.700;9.210;2022-07-23T04:38:18;3.00;;;2.50;;
32138;SDS011;18644;48.700;9.210;2022-07-23T04:40:44;3.22;;;2.80;;
32138;SDS011;18644;48.700;9.210;2022-07-23T04:43:11;2.97;;;2.35;;
32138;SDS011;18644;48.700;9.210;2022-07-23T04:45:39;2.53;;;2.30;;
32138;SDS011;18644;48.700;9.210;2022-07-23T04:48:06;2.67;;;2.45;;
32138;SDS011;18644;48.700;9.210;2022-07-23T04:50:34;3.28;;;2.67;;
32138;SDS011;18644;48.700;9.210;2022-07-23T04:53:01;2.47;;;2.28;;
32138;SDS011;18644;48.700;9.210;2022-07-23T04:55:28;2.58;;;2.38;;
32138;SDS011;18644;48.700;9.210;2022-07-23T04:57:54;3.03;;;2.70;;
32138;SDS011;18644;48.700;9.210;2022-07-23T05:00:21;3.40;;;2.63;;
32138;SDS011;18644;48.700;9.210;2022-07-23T05:02:48;3.78;;;2.97;;
32138;SDS011;18644;48.700;9.210;2022-07-23T05:05:15;2.75;;;2.50;;
32138;SDS011;18644;48.700;9.210;2022-07-23T05:07:43;4.05;;;3.03;;
32138;SDS011;18644;48.700;9.210;2022-07-23T05:10:10;3.80;;;2.88;;
32138;SDS011;18644;48.700;9.210;2022-07-23T05:12:37;3.72;;;3.10;;
32138;SDS011;18644;48.700;9.210;2022-07-23T05:15:04;3.03;;;2.72;;
32138;SDS011;18644;48.700;9.210;2022-07-23T05:17:32;3.42;;;3.00;;
32138;SDS011;18644;48.700;9.210;2022-07-23T05:19:58;5.40;;;3.13;;
32138;SDS011;18644;48.700;9.210;2022-07-23T05:22:25;2.80;;;2.60;;
32138;SDS011;18644;48.700;9.210;2022-07-23T05:24:53;3.03;;;2.70;;
32138;SDS011;18644;48.700;9.210;2022-07-23T05:27:20;3.40;;;3.00;;
32138;SDS011;18644;48.700;9.210;2022-07-23T05:29:47;3.67;;;2.70;;
32138;SDS011;18644;48.700;9.210;2022-07-23T05:32:14;3.08;;;2.75;;
32138;SDS011;18644;48.700;9.210;2022-07-23T05:34:41;2.90;;;2.70;;
32138;SDS011;18644;48.700;9.210;2022-07-23T05:37:08;4.75;;;2.78;;
32138;SDS011;18644;48.700;9.210;2022-07-23T05:39:35;3.65;;;2.78;;
32138;SDS011;18644;48.700;9.210;2022-07-23T05:42:03;3.35;;;2.65;;
32138;SDS011;18644;48.700;9.210;2022-07-23T05:44:30;3.33;;;2.97;;
32138;SDS011;18644;48.700;9.210;2022-07-23T05:46:57;3.67;;;2.83;;
32138;SDS011;18644;48.700;9.210;2022-07-23T05:49:24;5.55;;;2.92;;
32138;SDS011;18644;48.700;9.210;2022-07-23T05:51:51;2.80;;;2.60;;
32138;SDS011;18644;48.700;9.210;2022-07-23T05:54:18;3.17;;;2.75;;
32138;SDS011;18644;48.700;9.210;2022-07-23T05:56:45;4.47;;;2.97;;
32138;SDS011;18644;48.700;9.210;2022-07-23T05:59:13;3.30;;;2.63;;
32138;SDS011;18644;48.700;9.210;2022-07-23T06:01:40;3.05;;;2.75;;
32138;SDS011;18644;48.700;9.210;2022-07-23T06:04:07;3.67;;;3.10;;
32138;SDS011;18644;48.700;9.210;2022-07-23T06:06:34;3.13;;;2.53;;
32138;SDS011;18644;48.700;9.210;2022-07-23T06:09:01;5.75;;;2.70;;
32138;SDS011;18644;48.700;9.210;2022-07-23T06:11:28;2.97;;;2.70;;
32138;SDS011;18644;48.700;9.210;2022-07-23T06:13:55;3.47;;;3.17;;
32138;SDS011;18644;48.700;9.210;2022-07-23T06:16:24;4.10;;;3.05;;
32138;SDS011;18644;48.700;9.210;2022-07-23T06:18:51;3.10;;;2.45;;
32138;SDS011;18644;48.700;9.210;2022-07-23T06:21:17;3.03;;;2.72;;
32138;SDS011;18644;48.700;9.210;2022-07-23T06:23:44;4.20;;;2.97;;
32138;SDS011;18644;48.700;9.210;2022-07-23T06:26:11;3.33;;;3.03;;
32138;SDS011;18644;48.700;9.210;2022-07-23T06:28:38;2.95;;;2.72;;
32138;SDS011;18644;48.700;9.210;2022-07-23T06:31:05;2.95;;;2.65;;
32138;SDS011;18644;48.700;9.210;2022-07-23T06:33:34;3.10;;;2.78;;
32138;SDS011;18644;48.700;9.210;2022-07-23T06:36:01;4.15;;;2.88;;
32138;SDS011;18644;48.700;9.210;2022-07-23T06:38:28;5.05;;;2.92;;
32138;SDS011;18644;48.700;9.210;2022-07-23T06:40:55;3.90;;;3.08;;
32138;SDS011;18644;48.700;9.210;2022-07-23T06:43:21;4.85;;;3.40;;
32138;SDS011;18644;48.700;9.210;2022-07-23T06:45:48;3.55;;;3.20;;
32138;SDS011;18644;48.700;9.210;2022-07-23T06:48:15;4.75;;;3.50;;
32138;SDS011;18644;48.700;9.210;2022-07-23T06:50:43;3.30;;;2.58;;
32138;SDS011;18644;48.700;9.210;2022-07-23T06:53:10;4.10;;;2.83;;
32138;SDS011;18644;48.700;9.210;2022-07-23T06:55:37;3.53;;;2.75;;
32138;SDS011;18644;48.700;9.210;2022-07-23T06:58:05;3.28;;;2.80;;
32138;SDS011;18644;48.700;9.210;2022-07-23T07:00:34;3.10;;;2.80;;
32138;SDS011;18644;48.700;9.210;2022-07-23T07:03:01;2.80;;;2.60;;
32138;SDS011;18644;48.700;9.210;2022-07-23T07:05:28;4.00;;;2.97;;
32138;SDS011;18644;48.700;9.210;2022-07-23T07:07:56;3.05;;;2.75;;
32138;SDS011;18644;48.700;9.210;2022-07-23T07:10:23;3.47;;;3.17;;
32138;SDS011;18644;48.700;9.210;2022-07-23T07:12:50;3.70;;;3.00;;
32138;SDS011;18644;48.700;9.210;2022-07-23T07:15:16;3.53;;;2.75;;
32138;SDS011;18644;48.700;9.210;2022-07-23T07:17:43;3.42;;;3.03;;
32138;SDS011;18644;48.700;9.210;2022-07-23T07:20:10;3.75;;;2.70;;
32138;SDS011;18644;48.700;9.210;2022-07-23T07:22:37;3.65;;;2.75;;
32138;SDS011;18644;48.700;9.210;2022-07-23T07:25:06;3.20;;;2.85;;
32138;SDS011;18644;48.700;9.210;2022-07-23T07:27:34;3.38;;;2.80;;
32138;SDS011;18644;48.700;9.210;2022-07-23T07:30:02;4.47;;;3.08;;
32138;SDS011;18644;48.700;9.210;2022-07-23T07:32:30;3.08;;;2.75;;
32138;SDS011;18644;48.700;9.210;2022-07-23T07:34:57;3.08;;;2.78;;
32138;SDS011;18644;48.700;9.210;2022-07-23T07:37:24;3.75;;;3.00;;
32138;SDS011;18644;48.700;9.210;2022-07-23T07:39:51;2.58;;;2.38;;
32138;SDS011;18644;48.700;9.210;2022-07-23T07:42:19;2.70;;;2.50;;
32138;SDS011;18644;48.700;9.210;2022-07-23T07:44:46;3.55;;;2.78;;
32138;SDS011;18644;48.700;9.210;2022-07-23T07:47:13;4.22;;;2.78;;
32138;SDS011;18644;48.700;9.210;2022-07-23T07:49:40;2.85;;;2.60;;
32138;SDS011;18644;48.700;9.210;2022-07-23T07:52:07;2.88;;;2.63;;
32138;SDS011;18644;48.700;9.210;2022-07-23T07:54:34;3.60;;;2.88;;
32138;SDS011;18644;48.700;9.210;2022-07-23T07:57:01;2.88;;;2.60;;
32138;SDS011;18644;48.700;9.210;2022-07-23T07:59:30;2.80;;;2.60;;
32138;SDS011;18644;48.700;9.210;2022-07-23T08:01:56;3.20;;;2.90;;
32138;SDS011;18644;48.700;9.210;2022-07-23T08:04:23;3.95;;;2.90;;
32138;SDS011;18644;48.700;9.210;2022-07-23T08:06:50;3.45;;;3.03;;
32138;SDS011;18644;48.700;9.210;2022-07-23T08:09:17;3.40;;;3.10;;
32138;SDS011;18644;48.700;9.210;2022-07-23T08:11:44;4.60;;;2.83;;
32138;SDS011;18644;48.700;9.210;2022-07-23T08:14:11;4.32;;;2.95;;
32138;SDS011;18644;48.700;9.210;2022-07-23T08:16:39;3.22;;;2.53;;
32138;SDS011;18644;48.700;9.210;2022-07-23T08:19:06;4.05;;;3.17;;
32138;SDS011;18644;48.700;9.210;2022-07-23T08:21:33;3.97;;;3.00;;
32138;SDS011;18644;48.700;9.210;2022-07-23T08:24:00;3.15;;;2.95;;
32138;SDS011;18644;48.700;9.210;2022-07-23T08:26:27;5.95;;;3.22;;
32138;SDS011;18644;48.700;9.210;2022-07-23T08:28:54;3.55;;;2.92;;
32138;SDS011;18644;48.700;9.210;2022-07-23T08:31:21;2.50;;;2.30;;
32138;SDS011;18644;48.700;9.210;2022-07-23T08:33:49;3.00;;;2.70;;
32138;SDS011;18644;48.700;9.210;2022-07-23T08:36:17;3.00;;;2.67;;
32138;SDS011;18644;48.700;9.210;2022-07-23T08:38:44;3.95;;;2.95;;
32138;SDS011;18644;48.700;9.210;2022-07-23T08:41:11;2.67;;;2.47;;
32138;SDS011;18644;48.700;9.210;2022-07-23T08:43:38;3.10;;;2.80;;
32138;SDS011;18644;48.700;9.210;2022-07-23T08:46:07;2.90;;;2.65;;
32138;SDS011;18644;48.700;9.210;2022-07-23T08:48:35;3.67;;;3.08;;
32138;SDS011;18644;48.700;9.210;2022-07-23T08:51:04;3.40;;;3.10;;
32138;SDS011;18644;48.700;9.210;2022-07-23T08:53:33;3.20;;;2.90;;
32138;SDS011;18644;48.700;9.210;2022-07-23T08:56:03;2.80;;;2.50;;
32138;SDS011;18644;48.700;9.210;2022-07-23T08:58:31;3.10;;;2.80;;
32138;SDS011;18644;48.700;9.210;2022-07-23T09:00:58;3.20;;;2.72;;
32138;SDS011;18644;48.700;9.210;2022-07-23T09:03:27;2.63;;;2.42;;
32138;SDS011;18644;48.700;9.210;2022-07-23T09:05:58;3.17;;;2.92;;
32138;SDS011;18644;48.700;9.210;2022-07-23T09:08:33;3.13;;;2.83;;
32138;SDS011;18644;48.700;9.210;2022-07-23T09:11:02;3.25;;;2.95;;
32138;SDS011;18644;48.700;9.210;2022-07-23T09:13:36;2.58;;;2.38;;
32138;SDS011;18644;48.700;9.210;2022-07-23T09:16:06;3.33;;;2.53;;
32138;SDS011;18644;48.700;9.210;2022-07-23T09:18:39;3.03;;;2.72;;
32138;SDS011;18644;48.700;9.210;2022-07-23T09:21:10;4.07;;;2.83;;
32138;SDS011;18644;48.700;9.210;2022-07-23T09:23:46;3.78;;;2.78;;
32138;SDS011;18644;48.700;9.210;2022-07-23T09:26:24;3.00;;;2.50;;
32138;SDS011;18644;48.700;9.210;2022-07-23T09:28:58;2.90;;;2.60;;
32138;SDS011;18644;48.700;9.210;2022-07-23T09:31:33;2.58;;;2.38;;
32138;SDS011;18644;48.700;9.210;2022-07-23T09:34:10;3.20;;;2.90;;
32138;SDS011;18644;48.700;9.210;2022-07-23T09:36:41;3.08;;;2.78;;
32138;SDS011;18644;48.700;9.210;2022-07-23T09:39:10;3.72;;;3.10;;
32138;SDS011;18644;48.700;9.210;2022-07-23T09:41:39;3.30;;;2.80;;
32138;SDS011;18644;48.700;9.210;2022-07-23T09:44:09;4.10;;;2.83;;
32138;SDS011;18644;48.700;9.210;2022-07-23T09:46:42;4.15;;;3.00;;
32138;SDS011;18644;48.700;9.210;2022-07-23T09:49:14;5.13;;;3.55;;
32138;SDS011;18644;48.700;9.210;2022-07-23T09:51:45;2.80;;;2.60;;
32138;SDS011;18644;48.700;9.210;2022-07-23T09:57:08;3.08;;;2.70;;
32138;SDS011;18644;48.700;9.210;2022-07-23T10:02:09;2.80;;;2.60;;
32138;SDS011;18644;48.700;9.210;2022-07-23T10:04:38;2.47;;;2.28;;
32138;SDS011;18644;48.700;9.210;2022-07-23T10:07:07;3.05;;;2.75;;
32138;SDS011;18644;48.700;9.210;2022-07-23T10:09:37;3.83;;;2.78;;
32138;SDS011;18644;48.700;9.210;2022-07-23T10:12:09;3.67;;;3.20;;
32138;SDS011;18644;48.700;9.210;2022-07-23T10:14:56;3.65;;;2.40;;
32138;SDS011;18644;48.700;9.210;2022-07-23T10:17:24;3.10;;;2.90;;
32138;SDS011;18644;48.700;9.210;2022-07-23T10:19:51;2.58;;;2.38;;
32138;SDS011;18644;48.700;9.210;2022-07-23T10:22:19;4.43;;;3.00;;
32138;SDS011;18644;48.700;9.210;2022-07-23T10:24:52;3.35;;;3.05;;
32138;SDS011;18644;48.700;9.210;2022-07-23T10:27:43;3.63;;;3.05;;
32138;SDS011;18644;48.700;9.210;2022-07-23T10:30:32;2.85;;;2.55;;
32138;SDS011;18644;48.700;9.210;2022-07-23T10:33:20;3.03;;;2.72;;
32138;SDS011;18644;48.700;9.210;2022-07-23T10:36:07;3.75;;;2.80;;
32138;SDS011;18644;48.700;9.210;2022-07-23T10:38:47;3.72;;;2.50;;
32138;SDS011;18644;48.700;9.210;2022-07-23T10:41:30;3.35;;;3.08;;
32138;SDS011;18644;48.700;9.210;2022-07-23T10:44:09;3.13;;;2.50;;
32138;SDS011;18644;48.700;9.210;2022-07-23T10:49:26;3.30;;;3.00;;
32138;SDS011;18644;48.700;9.210;2022-07-23T10:54:46;3.17;;;2.78;;
32138;SDS011;18644;48.700;9.210;2022-07-23T10:57:16;3.90;;;3.33;;
32138;SDS011;18644;48.700;9.210;2022-07-23T11:02:40;3.22;;;2.92;;
32138;SDS011;18644;48.700;9.210;2022-07-23T11:05:09;4.22;;;2.60;;
32138;SDS011;18644;48.700;9.210;2022-07-23T11:10:42;3.50;;;2.92;;
32138;SDS011;18644;48.700;9.210;2022-07-23T11:16:20;2.88;;;2.63;;
32138;SDS011;18644;48.700;9.210;2022-07-23T11:18:54;2.72;;;2.42;;
32138;SDS011;18644;48.700;9.210;2022-07-23T11:21:48;2.80;;;2.58;;
32138;SDS011;18644;48.700;9.210;2022-07-23T11:24:29;3.22;;;2.92;;
32138;SDS011;18644;48.700;9.210;2022-07-23T11:27:00;3.00;;;2.67;;
32138;SDS011;18644;48.700;9.210;2022-07-23T11:29:37;2.88;;;2.63;;
32138;SDS011;18644;48.700;9.210;2022-07-23T11:32:22;3.90;;;2.72;;
32138;SDS011;18644;48.700;9.210;2022-07-23T11:35:03;2.80;;;2.60;;
32138;SDS011;18644;48.700;9.210;2022-07-23T11:37:47;3.15;;;2.85;;
32138;SDS011;18644;48.700;9.210;2022-07-23T11:40:15;3.30;;;2.75;;
32138;SDS011;18644;48.700;9.210;2022-07-23T11:42:53;2.33;;;2.13;;
32138;SDS011;18644;48.700;9.210;2022-07-23T11:45:23;2.88;;;2.67;;
32138;SDS011;18644;48.700;9.210;2022-07-23T11:47:57;3.17;;;2.13;;
32138;SDS011;18644;48.700;9.210;2022-07-23T11:50:24;2.45;;;2.25;;
32138;SDS011;18644;48.700;9.210;2022-07-23T11:52:52;3.20;;;2.88;;
32138;SDS011;18644;48.700;9.210;2022-07-23T11:55:19;3.42;;;2.47;;
32138;SDS011;18644;48.700;9.210;2022-07-23T11:57:46;3.25;;;2.95;;
32138;SDS011;18644;48.700;9.210;2022-07-23T12:00:14;3.10;;;2.78;;
32138;SDS011;18644;48.700;9.210;2022-07-23T12:02:45;3.17;;;2.88;;
32138;SDS011;18644;48.700;9.210;2022-07-23T12:05:16;3.90;;;2.88;;
32138;SDS011;18644;48.700;9.210;2022-07-23T12:07:46;3.25;;;2.95;;
32138;SDS011;18644;48.700;9.210;2022-07-23T12:10:16;2.87;;;2.57;;
32138;SDS011;18644;48.700;9.210;2022-07-23T12:12:46;3.25;;;2.88;;
32138;SDS011;18644;48.700;9.210;2022-07-23T12:15:16;3.63;;;3.00;;
32138;SDS011;18644;48.700;9.210;2022-07-23T12:17:46;2.95;;;2.72;;
32138;SDS011;18644;48.700;9.210;2022-07-23T12:20:16;3.33;;;3.03;;
32138;SDS011;18644;48.700;9.210;2022-07-23T12:22:47;2.83;;;2.60;;
32138;SDS011;18644;48.700;9.210;2022-07-23T12:25:16;3.42;;;3.03;;
32138;SDS011;18644;48.700;9.210;2022-07-23T12:27:45;2.80;;;2.60;;
32138;SDS011;18644;48.700;9.210;2022-07-23T12:30:16;3.45;;;2.90;;
32138;SDS011;18644;48.700;9.210;2022-07-23T12:32:49;3.13;;;2.78;;
32138;SDS011;18644;48.700;9.210;2022-07-23T12:35:21;3.55;;;2.85;;
32138;SDS011;18644;48.700;9.210;2022-07-23T12:37:50;3.25;;;2.88;;
32138;SDS011;18644;48.700;9.210;2022-07-23T12:40:21;4.05;;;2.58;;
32138;SDS011;18644;48.700;9.210;2022-07-23T12:42:52;3.03;;;2.83;;
32138;SDS011;18644;48.700;9.210;2022-07-23T12:45:21;3.10;;;2.80;;
32138;SDS011;18644;48.700;9.210;2022-07-23T12:47:52;3.78;;;2.72;;
32138;SDS011;18644;48.700;9.210;2022-07-23T12:50:33;3.10;;;2.90;;
32138;SDS011;18644;48.700;9.210;2022-07-23T12:53:07;3.20;;;2.90;;
32138;SDS011;18644;48.700;9.210;2022-07-23T12:55:38;3.13;;;2.83;;
32138;SDS011;18644;48.700;9.210;2022-07-23T12:58:13;2.97;;;2.78;;
32138;SDS011;18644;48.700;9.210;2022-07-23T13:00:50;3.30;;;2.97;;
32138;SDS011;18644;48.700;9.210;2022-07-23T13:03:23;3.42;;;3.10;;
32138;SDS011;18644;48.700;9.210;2022-07-23T13:05:53;2.80;;;2.60;;
32138;SDS011;18644;48.700;9.210;2022-07-23T13:08:20;4.25;;;2.67;;
32138;SDS011;18644;48.700;9.210;2022-07-23T13:10:50;5.50;;;3.15;;
32138;SDS011;18644;48.700;9.210;2022-07-23T13:13:19;3.45;;;3.15;;
32138;SDS011;18644;48.700;9.210;2022-07-23T13:15:47;3.10;;;2.80;;
32138;SDS011;18644;48.700;9.210;2022-07-23T13:18:15;2.90;;;2.65;;
32138;SDS011;18644;48.700;9.210;2022-07-23T13:20:43;2.72;;;2.53;;
32138;SDS011;18644;48.700;9.210;2022-07-23T13:23:11;2.80;;;2.60;;
32138;SDS011;18644;48.700;9.210;2022-07-23T13:25:39;3.40;;;3.10;;
32138;SDS011;18644;48.700;9.210;2022-07-23T13:28:07;3.75;;;3.03;;
32138;SDS011;18644;48.700;9.210;2022-07-23T13:30:34;3.10;;;2.90;;
32138;SDS011;18644;48.700;9.210;2022-07-23T13:33:02;3.50;;;3.20;;
32138;SDS011;18644;48.700;9.210;2022-07-23T13:35:30;3.10;;;2.55;;
32138;SDS011;18644;48.700;9.210;2022-07-23T13:37:58;6.22;;;2.95;;
32138;SDS011;18644;48.700;9.210;2022-07-23T13:40:26;2.85;;;2.65;;
32138;SDS011;18644;48.700;9.210;2022-07-23T13:42:53;2.92;;;2.72;;
32138;SDS011;18644;48.700;9.210;2022-07-23T13:45:20;4.18;;;2.80;;
32138;SDS011;18644;48.700;9.210;2022-07-23T13:47:47;3.00;;;2.80;;
32138;SDS011;18644;48.700;9.210;2022-07-23T13:50:14;2.55;;;2.35;;
32138;SDS011;18644;48.700;9.210;2022-07-23T13:52:42;3.65;;;2.90;;
32138;SDS011;18644;48.700;9.210;2022-07-23T13:55:09;3.78;;;3.15;;
32138;SDS011;18644;48.700;9.210;2022-07-23T13:57:38;3.63;;;3.33;;
32138;SDS011;18644;48.700;9.210;2022-07-23T14:00:11;3.35;;;3.05;;
32138;SDS011;18644;48.700;9.210;2022-07-23T14:02:39;3.20;;;3.00;;
32138;SDS011;18644;48.700;9.210;2022-07-23T14:05:07;3.00;;;2.78;;
32138;SDS011;18644;48.700;9.210;2022-07-23T14:07:36;3.00;;;2.70;;
32138;SDS011;18644;48.700;9.210;2022-07-23T14:10:05;3.60;;;3.05;;
32138;SDS011;18644;48.700;9.210;2022-07-23T14:12:33;4.60;;;3.20;;
32138;SDS011;18644;48.700;9.210;2022-07-23T14:15:02;3.35;;;3.00;;
32138;SDS011;18644;48.700;9.210;2022-07-23T14:17:31;2.95;;;2.63;;
32138;SDS011;18644;48.700;9.210;2022-07-23T14:19:59;3.42;;;3.08;;
32138;SDS011;18644;48.700;9.210;2022-07-23T14:22:26;4.40;;;2.72;;
32138;SDS011;18644;48.700;9.210;2022-07-23T14:24:55;3.42;;;3.13;;
32138;SDS011;18644;48.700;9.210;2022-07-23T14:27:23;4.80;;;3.15;;
32138;SDS011;18644;48.700;9.210;2022-07-23T14:29:51;3.42;;;2.95;;
32138;SDS011;18644;48.700;9.210;2022-07-23T14:32:21;3.58;;;3.10;;
32138;SDS011;18644;48.700;9.210;2022-07-23T14:34:49;3.53;;;3.22;;
32138;SDS011;18644;48.700;9.210;2022-07-23T14:37:19;3.20;;;2.88;;
32138;SDS011;18644;48.700;9.210;2022-07-23T14:39:47;3.50;;;3.20;;
32138;SDS011;18644;48.700;9.210;2022-07-23T14:42:14;3.50;;;3.20;;
32138;SDS011;18644;48.700;9.210;2022-07-23T14:44:41;3.47;;;3.17;;
32138;SDS011;18644;48.700;9.210;2022-07-23T14:47:08;3.60;;;3.28;;
32138;SDS011;18644;48.700;9.210;2022-07-23T14:49:37;3.58;;;3.15;;
32138;SDS011;18644;48.700;9.210;2022-07-23T14:52:06;3.05;;;2.85;;
32138;SDS011;18644;48.700;9.210;2022-07-23T14:54:33;3.30;;;3.00;;
32138;SDS011;18644;48.700;9.210;2022-07-23T14:57:01;3.53;;;3.13;;
32138;SDS011;18644;48.700;9.210;2022-07-23T14:59:29;2.92;;;2.72;;
32138;SDS011;18644;48.700;9.210;2022-07-23T15:01:56;4.65;;;3.00;;
32138;SDS011;18644;48.700;9.210;2022-07-23T15:04:24;3.58;;;3.10;;
32138;SDS011;18644;48.700;9.210;2022-07-23T15:06:52;3.30;;;2.95;;
32138;SDS011;18644;48.700;9.210;2022-07-23T15:09:19;3.08;;;2.85;;
32138;SDS011;18644;48.700;9.210;2022-07-23T15:11:47;3.17;;;2.85;;
32138;SDS011;18644;48.700;9.210;2022-07-23T15:14:14;4.32;;;2.92;;
32138;SDS011;18644;48.700;9.210;2022-07-23T15:16:41;3.17;;;2.88;;
32138;SDS011;18644;48.700;9.210;2022-07-23T15:19:08;3.15;;;2.85;;